Time;durP1;ratioP1;P1;durP2;ratioP2;P2;SDS_P1;SDS_P2;PMS_P1;PMS_P2;Temp;Humidity;BMP_temperature;BMP_pressure;BME280_temperature;BME280_humidity;BME280_pressure;Samples;Min_cycle;Max_cycle;Signal;HPM_P1;HPM_P2
2022/11/10 00:01:47;;;;;;;15.82;2.50;;;;;;;-142.75;100.00;77562.53;5081374;28;20476;-67
2022/11/10 00:04:13;;;;;;;17.60;2.47;;;;;;;-142.75;100.00;77570.41;5081345;28;20039;-69
2022/11/10 00:06:39;;;;;;;17.20;2.05;;;;;;;-142.75;100.00;77572.38;5080906;28;20138;-66
2022/11/10 00:09:05;;;;;;;21.48;2.30;;;;;;;-142.75;100.00;77576.31;5099071;28;20034;-69
2022/11/10 00:11:31;;;;;;;14.38;2.25;;;;;;;-142.75;100.00;77576.31;5099858;28;20491;-68
2022/11/10 00:19:23;;;;;;;14.73;2.92;;;;;;;-142.75;100.00;77570.41;5099462;28;20039;-65
2022/11/10 00:21:49;;;;;;;12.27;2.17;;;;;;;-142.75;100.00;77574.34;5080866;28;20397;-64
2022/11/10 00:24:14;;;;;;;16.63;2.08;;;;;;;-142.75;100.00;77570.41;5098944;28;20077;-65
2022/11/10 00:26:39;;;;;;;20.60;3.17;;;;;;;-142.75;100.00;77576.31;5098708;28;20397;-65
2022/11/10 00:29:04;;;;;;;17.13;1.98;;;;;;;-142.75;100.00;77570.41;5098875;28;20031;-65
2022/11/10 00:31:30;;;;;;;18.13;1.88;;;;;;;-142.75;100.00;77574.34;5099118;28;20020;-66
2022/11/10 00:33:56;;;;;;;12.43;1.92;;;;;;;-142.75;100.00;77570.41;5080505;28;20020;-66
2022/11/10 00:36:22;;;;;;;17.38;2.17;;;;;;;-142.75;100.00;77566.47;5098437;28;20851;-63
2022/11/10 00:38:51;;;;;;;14.50;2.10;;;;;;;-142.75;100.00;77568.44;5098287;28;20026;-65
2022/11/10 00:41:16;;;;;;;14.98;1.73;;;;;;;-142.75;100.00;77578.28;5098973;28;20031;-65
2022/11/10 00:43:41;;;;;;;13.05;1.92;;;;;;;-142.75;100.00;77568.44;5099264;28;20053;-66
2022/11/10 00:46:07;;;;;;;10.05;2.08;;;;;;;-142.75;100.00;77582.22;5098578;28;20023;-65
2022/11/10 00:48:32;;;;;;;13.85;2.05;;;;;;;-142.75;100.00;77576.31;5097774;28;20809;-65
2022/11/10 00:50:58;;;;;;;14.48;2.42;;;;;;;-142.75;100.00;77576.31;5098517;28;20027;-63
2022/11/10 00:53:23;;;;;;;10.93;1.92;;;;;;;-142.75;100.00;77592.06;5098386;28;20108;-65
2022/11/10 00:55:48;;;;;;;18.85;2.28;;;;;;;-142.75;100.00;77596.00;5080271;28;20663;-66
2022/11/10 00:58:14;;;;;;;7.25;1.88;;;;;;;-142.75;100.00;77594.03;5097282;28;20027;-63
2022/11/10 01:00:40;;;;;;;13.65;1.95;;;;;;;-142.75;100.00;77599.94;5098594;28;20433;-65
2022/11/10 01:03:05;;;;;;;16.23;2.03;;;;;;;-142.75;100.00;77605.84;5097507;28;20035;-65
2022/11/10 01:05:35;;;;;;;16.13;2.90;;;;;;;-142.75;100.00;77599.94;5098491;28;20206;-65
2022/11/10 01:08:00;;;;;;;22.15;2.50;;;;;;;-142.75;100.00;77601.91;5097296;28;20810;-66
2022/11/10 01:10:26;;;;;;;12.55;2.50;;;;;;;-142.75;100.00;77613.72;5098338;28;20033;-65
2022/11/10 01:12:51;;;;;;;12.75;2.53;;;;;;;-142.75;100.00;77601.91;5080204;28;20468;-65
2022/11/10 01:15:17;;;;;;;10.48;1.83;;;;;;;-142.75;100.00;77590.09;5098982;28;21005;-66
2022/11/10 01:17:42;;;;;;;20.40;2.05;;;;;;;-142.75;100.00;77605.84;5097144;28;20620;-64
2022/11/10 01:20:08;;;;;;;11.38;1.85;;;;;;;-142.75;100.00;77592.06;5098262;28;20028;-66
2022/11/10 01:22:34;;;;;;;15.13;2.05;;;;;;;-142.75;100.00;77601.91;5098189;28;20472;-65
2022/11/10 01:24:59;;;;;;;22.90;2.40;;;;;;;-142.75;100.00;77615.69;5097476;28;20023;-65
2022/11/10 01:27:25;;;;;;;24.00;2.15;;;;;;;-142.75;100.00;77611.75;5097095;28;20064;-67
2022/11/10 01:29:50;;;;;;;10.52;2.15;;;;;;;-142.75;100.00;77611.75;5097702;28;20055;-66
2022/11/10 01:32:15;;;;;;;12.55;2.08;;;;;;;-142.75;100.00;77617.66;5097423;28;20011;-64
2022/11/10 01:34:41;;;;;;;17.67;2.10;;;;;;;-142.75;100.00;77611.75;5079605;28;20540;-65
2022/11/10 01:37:06;;;;;;;12.98;2.05;;;;;;;-142.75;100.00;77611.75;5096681;28;20027;-65
2022/11/10 01:39:31;;;;;;;19.83;2.17;;;;;;;-142.75;100.00;77621.59;5097910;28;20051;-65
2022/11/10 01:41:57;;;;;;;10.20;2.08;;;;;;;-142.75;100.00;77613.72;5097436;28;20022;-65
2022/11/10 01:44:24;;;;;;;17.58;2.00;;;;;;;-142.75;100.00;77605.84;5098224;28;20177;-62
2022/11/10 01:46:50;;;;;;;9.23;2.20;;;;;;;-142.75;100.00;77603.88;5096753;28;20109;-65
2022/11/10 01:49:20;;;;;;;9.38;2.00;;;;;;;-142.75;100.00;77601.91;5097634;28;20484;-65
2022/11/10 01:51:50;;;;;;;19.48;3.08;;;;;;;-142.75;100.00;77605.84;5097446;28;20422;-65
2022/11/10 01:54:28;;;;;;;16.10;2.15;;;;;;;-142.75;100.00;77605.84;5097399;28;20377;-66
2022/11/10 01:56:57;;;;;;;16.73;1.92;;;;;;;-142.75;100.00;77617.66;5096810;28;20031;-66
2022/11/10 01:59:27;;;;;;;11.65;2.25;;;;;;;-142.75;100.00;77611.75;5079651;28;20027;-64
2022/11/10 02:01:57;;;;;;;20.40;2.08;;;;;;;-142.75;100.00;77613.72;5097891;28;20035;-65
2022/11/10 02:04:23;;;;;;;9.52;1.63;;;;;;;-142.75;100.00;77627.50;5097615;28;20088;-67
2022/11/10 02:06:49;;;;;;;;;;;;;;;-142.75;100.00;77633.41;5097306;28;20062;-65
2022/11/10 02:09:15;;;;;;;7.45;1.30;;;;;;;-142.75;100.00;77643.25;5079362;28;20037;-65
2022/11/10 02:11:42;;;;;;;9.05;1.50;;;;;;;-142.75;100.00;77653.09;5097664;28;20107;-66
2022/11/10 02:14:08;;;;;;;9.50;1.83;;;;;;;-142.75;100.00;77639.31;5098814;28;20030;-66
2022/11/10 02:16:35;;;;;;;11.00;1.95;;;;;;;-142.75;100.00;77643.25;5101521;28;20067;-65
2022/11/10 02:19:19;;;;;;;14.75;2.20;;;;;;;-142.75;100.00;77649.16;5101087;28;20027;-66
2022/11/10 02:21:45;;;;;;;10.52;2.40;;;;;;;-142.75;100.00;77657.03;5101564;28;20030;-66
2022/11/10 02:24:10;;;;;;;10.73;2.03;;;;;;;-142.75;100.00;77647.19;5101469;28;20015;-66
2022/11/10 02:26:41;;;;;;;13.65;2.28;;;;;;;-142.75;100.00;77651.13;5100941;28;20027;-64
2022/11/10 02:29:06;;;;;;;16.77;2.20;;;;;;;-142.75;100.00;77655.06;5100660;28;20023;-65
2022/11/10 02:31:31;;;;;;;18.52;2.30;;;;;;;-142.75;100.00;77668.84;5101571;28;20027;-66
2022/11/10 02:33:57;;;;;;;14.27;1.88;;;;;;;-142.75;100.00;77666.88;5100751;28;20023;-65
2022/11/10 02:36:22;;;;;;;18.38;2.33;;;;;;;-142.75;100.00;77662.94;5101341;28;20062;-65
2022/11/10 02:38:47;;;;;;;11.93;1.98;;;;;;;-142.75;100.00;77668.84;5100217;28;20038;-65
2022/11/10 02:41:12;;;;;;;16.95;2.72;;;;;;;-142.75;100.00;77672.78;5082660;28;20020;-66
2022/11/10 02:43:38;;;;;;;9.32;2.33;;;;;;;-142.75;100.00;77662.94;5101344;28;20693;-67
2022/11/10 02:46:03;;;;;;;11.88;2.30;;;;;;;-142.75;100.00;77674.75;5101716;28;20035;-65
2022/11/10 02:48:29;;;;;;;9.20;1.80;;;;;;;-142.75;100.00;77672.78;5100511;28;20026;-63
2022/11/10 02:50:54;;;;;;;14.85;2.35;;;;;;;-142.75;100.00;77680.66;5100976;28;20019;-66
2022/11/10 02:53:20;;;;;;;12.15;2.00;;;;;;;-142.75;100.00;77688.53;5100800;28;20016;-66
2022/11/10 02:55:45;;;;;;;11.23;2.15;;;;;;;-142.75;100.00;77680.66;5100556;28;20024;-66
2022/11/10 02:58:10;;;;;;;12.38;1.83;;;;;;;-142.75;100.00;77686.56;5099877;28;20038;-65
2022/11/10 03:00:36;;;;;;;18.73;2.47;;;;;;;-142.75;100.00;77686.56;5082547;28;20088;-65
2022/11/10 03:03:01;;;;;;;18.92;2.22;;;;;;;-142.75;100.00;77700.34;5100358;28;20026;-65
2022/11/10 03:05:30;;;;;;;4.43;1.30;;;;;;;-142.75;100.00;77698.38;5100980;28;20012;-66
2022/11/10 03:07:58;;;;;;;12.15;2.20;;;;;;;-142.75;100.00;77688.53;5099833;28;20054;-67
2022/11/10 03:10:24;;;;;;;15.98;2.38;;;;;;;-142.75;100.00;77710.19;5082530;28;20088;-65
2022/11/10 03:12:54;;;;;;;13.20;2.33;;;;;;;-142.75;100.00;77698.38;5100317;28;20023;-66
2022/11/10 03:15:19;;;;;;;15.45;2.30;;;;;;;-142.75;100.00;77708.22;5101252;28;20322;-66
2022/11/10 03:17:45;;;;;;;14.48;1.77;;;;;;;-142.75;100.00;77712.16;5099688;28;20101;-65
2022/11/10 03:20:10;;;;;;;15.10;1.90;;;;;;;-142.75;100.00;77725.97;5100332;28;20094;-65
2022/11/10 03:22:35;;;;;;;15.98;2.70;;;;;;;-142.75;100.00;77716.09;5100608;28;20048;-65
2022/11/10 03:25:01;;;;;;;10.55;1.85;;;;;;;-142.75;100.00;77718.06;5099538;28;20461;-66
2022/11/10 03:27:26;;;;;;;14.27;1.92;;;;;;;-142.75;100.00;77725.97;5081566;28;20028;-65
2022/11/10 03:29:51;;;;;;;13.55;1.95;;;;;;;-142.75;100.00;77725.97;5100080;28;20092;-62
2022/11/10 03:32:17;;;;;;;21.98;2.05;;;;;;;-142.75;100.00;77725.97;5100172;28;20144;-65
2022/11/10 03:34:42;;;;;;;13.35;1.95;;;;;;;-142.75;100.00;77735.81;5099885;28;20022;-63
2022/11/10 03:37:07;;;;;;;10.35;2.00;;;;;;;-142.75;100.00;77743.69;5099118;28;20030;-65
2022/11/10 03:39:33;;;;;;;20.52;2.58;;;;;;;-142.75;100.00;77739.75;5082124;28;20020;-66
2022/11/10 03:41:58;;;;;;;16.48;2.47;;;;;;;-142.75;100.00;77747.63;5081740;28;20024;-64
2022/11/10 03:44:23;;;;;;;15.18;2.15;;;;;;;-142.75;100.00;77745.66;5101044;28;20015;-64
2022/11/10 03:46:49;;;;;;;13.93;2.38;;;;;;;-142.75;100.00;77737.78;5081153;28;20138;-65
2022/11/10 03:49:14;;;;;;;13.15;2.78;;;;;;;-142.75;100.00;77747.63;5099850;28;20012;-64
2022/11/10 03:51:39;;;;;;;12.10;2.83;;;;;;;-142.75;100.00;77741.72;5100291;28;20385;-64
2022/11/10 03:54:05;;;;;;;16.00;2.90;;;;;;;-142.75;100.00;77763.38;5081158;28;20030;-65
2022/11/10 03:56:30;;;;;;;18.83;2.65;;;;;;;-142.75;100.00;77759.44;5099461;28;20027;-63
2022/11/10 03:58:55;;;;;;;16.00;3.00;;;;;;;-142.75;100.00;77763.38;5099166;28;20136;-64
2022/11/10 04:01:22;;;;;;;16.05;3.83;;;;;;;-142.75;100.00;77763.38;5099969;28;20667;-65
2022/11/10 04:03:48;;;;;;;11.50;2.75;;;;;;;-142.75;100.00;77769.28;5081336;28;20020;-65
2022/11/10 04:09:00;;;;;;;15.27;2.40;;;;;;;-142.75;100.00;77781.09;5099027;28;20084;-65
2022/11/10 04:16:58;;;;;;;12.25;2.88;;;;;;;-142.75;100.00;77787.00;5098747;28;20371;-62
2022/11/10 04:19:23;;;;;;;14.57;2.75;;;;;;;-142.75;100.00;77790.94;5099583;28;20489;-63
2022/11/10 04:21:49;;;;;;;15.55;2.63;;;;;;;-142.75;100.00;77794.88;5099032;28;20035;-64
2022/11/10 04:24:14;;;;;;;16.42;2.95;;;;;;;-142.75;100.00;77804.72;5099268;28;20023;-65
2022/11/10 04:26:41;;;;;;;11.77;2.78;;;;;;;-142.75;100.00;77800.78;5098884;28;20035;-65
2022/11/10 04:29:09;;;;;;;12.00;2.80;;;;;;;-142.75;100.00;77796.84;5099017;28;20027;-65
2022/11/10 04:31:36;;;;;;;19.48;4.07;;;;;;;-142.75;100.00;77794.88;5099698;28;20858;-65
2022/11/10 04:34:04;;;;;;;19.52;2.75;;;;;;;-142.75;100.00;77800.78;5080362;28;20887;-66
2022/11/10 04:36:31;;;;;;;19.45;2.95;;;;;;;-142.75;100.00;77796.84;5098298;28;20051;-65
2022/11/10 04:38:56;;;;;;;18.35;2.40;;;;;;;-142.75;100.00;77796.84;5098331;28;20085;-65
2022/11/10 04:41:24;;;;;;;17.13;2.63;;;;;;;-142.75;100.00;77802.75;5098728;28;20709;-65
2022/11/10 04:43:49;;;;;;;14.25;2.08;;;;;;;-142.75;100.00;77802.75;5098735;28;20047;-65
2022/11/10 04:46:33;;;;;;;11.52;2.13;;;;;;;-142.75;100.00;77802.75;5099497;28;20118;-63
2022/11/10 04:48:59;;;;;;;14.20;2.42;;;;;;;-142.75;100.00;77802.75;5097829;28;20042;-64
2022/11/10 04:51:26;;;;;;;;;;;;;;;-142.75;100.00;77804.72;5099462;28;20477;-65
2022/11/10 04:53:51;;;;;;;14.50;2.75;;;;;;;-142.75;100.00;77812.59;5098852;28;19964;-66
2022/11/10 04:56:18;;;;;;;12.77;2.53;;;;;;;-142.75;100.00;77802.75;5098428;28;20035;-64
2022/11/10 04:58:44;;;;;;;16.75;2.67;;;;;;;-142.75;100.00;77812.59;5097311;28;20066;-61
2022/11/10 05:01:11;;;;;;;12.95;3.33;;;;;;;-142.75;100.00;77802.75;5098405;28;20102;-64
2022/11/10 05:03:37;;;;;;;12.13;2.70;;;;;;;-142.75;100.00;77806.69;5079621;28;20038;-66
2022/11/10 05:06:02;;;;;;;18.90;3.17;;;;;;;-142.75;100.00;77810.63;5097265;28;20031;-66
2022/11/10 05:08:27;;;;;;;15.52;3.33;;;;;;;-142.75;100.00;77816.53;5097050;28;20026;-65
2022/11/10 05:10:52;;;;;;;15.68;2.85;;;;;;;-142.75;100.00;77814.56;5079119;28;20015;-64
2022/11/10 05:13:18;;;;;;;19.13;3.00;;;;;;;-142.75;100.00;77818.50;5097203;28;20080;-65
2022/11/10 05:15:44;;;;;;;21.85;3.90;;;;;;;-142.75;100.00;77814.56;5080127;28;20042;-63
2022/11/10 05:18:09;;;;;;;;;;;;;;;-142.75;100.00;77808.66;5078909;28;20034;-66
2022/11/10 05:20:34;;;;;;;16.05;2.90;;;;;;;-142.75;100.00;77810.63;5080157;28;19915;-65
2022/11/10 05:25:44;;;;;;;15.75;2.95;;;;;;;-142.75;100.00;77826.38;5099908;28;20046;-64
2022/11/10 05:28:11;;;;;;;12.38;3.22;;;;;;;-142.75;100.00;77818.50;5099026;28;20031;-66
2022/11/10 05:30:37;;;;;;;20.17;2.97;;;;;;;-142.75;100.00;77826.38;5081875;28;20035;-64
2022/11/10 05:33:04;;;;;;;16.70;3.17;;;;;;;-142.75;100.00;77832.28;5099513;28;20015;-64
2022/11/10 05:35:29;;;;;;;;;;;;;;;-142.75;100.00;77822.44;5082225;28;20102;-64
2022/11/10 05:37:54;;;;;;;18.23;2.83;;;;;;;-142.75;100.00;77820.47;5098827;28;19922;-62
2022/11/10 05:40:20;;;;;;;19.33;3.10;;;;;;;-142.75;100.00;77818.50;5100131;28;20031;-64
2022/11/10 05:42:47;;;;;;;19.50;2.95;;;;;;;-142.75;100.00;77828.34;5099727;28;20024;-63
2022/11/10 05:45:14;;;;;;;20.55;3.10;;;;;;;-142.75;100.00;77824.41;5099862;28;20046;-66
2022/11/10 05:47:39;;;;;;;11.82;2.13;;;;;;;-142.75;100.00;77826.38;5099235;28;20112;-65
2022/11/10 05:50:06;;;;;;;16.40;2.08;;;;;;;-142.75;100.00;77834.25;5099209;28;20103;-64
2022/11/10 05:52:32;;;;;;;13.75;2.90;;;;;;;-142.75;100.00;77834.25;5081281;28;20110;-63
2022/11/10 05:54:57;;;;;;;16.98;2.20;;;;;;;-142.75;100.00;77828.34;5099099;28;20022;-62
2022/11/10 05:57:22;;;;;;;18.00;2.80;;;;;;;-142.75;100.00;77834.25;5098943;28;20023;-64
2022/11/10 05:59:48;;;;;;;15.68;3.25;;;;;;;-142.75;100.00;77830.31;5099268;28;20019;-64
2022/11/10 06:02:13;;;;;;;15.32;2.17;;;;;;;-142.75;100.00;77832.28;5099079;28;20020;-64
2022/11/10 06:04:39;;;;;;;11.23;2.38;;;;;;;-142.75;100.00;77846.06;5081005;28;20023;-65
2022/11/10 06:07:06;;;;;;;12.95;2.78;;;;;;;-142.75;100.00;77842.13;5098230;28;20028;-65
2022/11/10 06:09:32;;;;;;;15.10;2.45;;;;;;;-142.75;100.00;77865.75;5099597;28;20023;-66
2022/11/10 06:11:57;;;;;;;18.63;2.83;;;;;;;-142.75;100.00;77861.81;5098927;28;20473;-64
2022/11/10 06:14:23;;;;;;;14.45;2.25;;;;;;;-142.75;100.00;77865.75;5113476;22;20028;-70
2022/11/10 06:16:48;;;;;;;16.35;2.38;;;;;;;-142.75;100.00;77877.56;5098845;28;20488;-71
2022/11/10 06:19:13;;;;;;;11.23;2.03;;;;;;;-142.75;100.00;77863.78;5099190;28;20054;-70
2022/11/10 06:21:38;;;;;;;12.43;2.08;;;;;;;-142.75;100.00;77875.59;5099592;28;20509;-71
2022/11/10 06:24:04;;;;;;;15.02;2.58;;;;;;;-142.75;100.00;77879.53;5080280;28;20050;-71
2022/11/10 06:26:29;;;;;;;18.40;2.92;;;;;;;-142.75;100.00;77873.63;5099261;28;20026;-70
2022/11/10 06:28:55;;;;;;;13.05;2.85;;;;;;;-142.75;100.00;77871.66;5098435;28;20020;-71
2022/11/10 06:31:20;;;;;;;15.90;2.55;;;;;;;-142.75;100.00;77877.56;5080851;28;20020;-71
2022/11/10 06:33:47;;;;;;;8.85;2.33;;;;;;;-142.75;100.00;77875.59;5098893;28;20031;-71
2022/11/10 06:36:13;;;;;;;14.23;3.22;;;;;;;-142.75;100.00;77881.50;5099062;28;20066;-70
2022/11/10 06:38:38;;;;;;;13.35;2.40;;;;;;;-142.75;100.00;77881.50;5098545;28;20600;-70
2022/11/10 06:41:04;;;;;;;13.82;2.67;;;;;;;-142.75;100.00;77883.47;5098806;28;20019;-71
2022/11/10 06:43:29;;;;;;;15.93;2.83;;;;;;;-142.75;100.00;77885.44;5099198;28;20532;-72
2022/11/10 06:45:55;;;;;;;22.55;3.42;;;;;;;-142.75;100.00;77877.56;5098738;28;20514;-72
2022/11/10 06:48:21;;;;;;;15.70;3.05;;;;;;;-142.75;100.00;77885.44;5080013;28;20028;-72
2022/11/10 06:50:46;;;;;;;19.17;2.67;;;;;;;-142.75;100.00;77905.13;5098666;28;20024;-71
2022/11/10 06:53:12;;;;;;;15.95;2.72;;;;;;;-142.75;100.00;77903.16;5098642;28;20515;-71
2022/11/10 06:55:38;;;;;;;9.75;2.13;;;;;;;-142.75;100.00;77903.16;5098787;28;20177;-69
2022/11/10 06:58:03;;;;;;;5.45;1.92;;;;;;;-142.75;100.00;77915.00;5097663;28;20423;-70
2022/11/10 07:00:28;;;;;;;15.52;2.15;;;;;;;-142.75;100.00;77907.09;5100601;28;20033;-71
2022/11/10 07:03:13;;;;;;;18.13;2.72;;;;;;;-142.75;100.00;77911.06;5102679;28;20027;-71
2022/11/10 07:05:39;;;;;;;19.17;2.78;;;;;;;-142.75;100.00;77913.03;5102842;28;20023;-72
2022/11/10 07:08:07;;;;;;;6.93;2.30;;;;;;;-142.75;100.00;77909.06;5101301;28;20019;-69
2022/11/10 07:10:33;;;;;;;14.32;2.42;;;;;;;-142.75;100.00;77915.00;5084595;28;20059;-71
2022/11/10 07:13:01;;;;;;;14.45;2.20;;;;;;;-142.75;100.00;77901.19;5102277;28;20027;-68
2022/11/10 07:15:27;;;;;;;22.45;3.25;;;;;;;-142.75;100.00;77897.25;5084293;28;20847;-71
2022/11/10 07:17:52;;;;;;;13.13;2.60;;;;;;;-142.75;100.00;77891.34;5101798;28;20101;-72
2022/11/10 07:20:17;;;;;;;14.60;3.10;;;;;;;-142.75;100.00;77893.31;5083795;28;20221;-71
2022/11/10 07:22:42;;;;;;;10.68;2.63;;;;;;;-142.75;100.00;77879.53;5102125;28;20027;-68
2022/11/10 07:25:08;;;;;;;14.15;3.25;;;;;;;-142.75;100.00;77867.72;5102137;28;20016;-71
2022/11/10 07:27:33;;;;;;;16.80;2.85;;;;;;;-142.75;100.00;77857.88;5083359;28;20544;-73
2022/11/10 07:29:59;;;;;;;15.23;3.28;;;;;;;-142.75;100.00;77846.06;5083170;28;20389;-71
2022/11/10 07:32:24;;;;;;;25.00;3.05;;;;;;;-142.75;100.00;77828.34;5102392;28;20028;-72
2022/11/10 07:34:50;;;;;;;13.10;3.72;;;;;;;-142.75;100.00;77824.41;5102040;28;20115;-72
2022/11/10 07:37:15;;;;;;;17.88;2.97;;;;;;;-142.75;100.00;77830.31;5101239;28;20493;-73
2022/11/10 07:39:40;;;;;;;19.88;2.47;;;;;;;-142.75;100.00;77830.31;5102215;28;20106;-72
2022/11/10 07:42:06;;;;;;;16.88;2.42;;;;;;;-142.75;100.00;77818.50;5101591;28;20023;-71
2022/11/10 07:44:31;;;;;;;15.27;2.47;;;;;;;-142.75;100.00;77810.63;5101856;28;20015;-71
2022/11/10 07:46:57;;;;;;;13.63;2.13;;;;;;;-142.75;100.00;77787.00;5083193;28;20752;-71
2022/11/10 07:49:22;;;;;;;11.77;1.92;;;;;;;-142.75;100.00;77767.31;5084011;28;20024;-72
2022/11/10 07:51:47;;;;;;;16.23;2.55;;;;;;;-142.75;100.00;77763.38;5101518;28;20083;-71
2022/11/10 07:54:13;;;;;;;12.85;2.47;;;;;;;-142.75;100.00;77739.75;5101430;28;20022;-72
2022/11/10 07:56:38;;;;;;;15.98;2.40;;;;;;;-142.75;100.00;77712.16;5101257;28;20035;-72
2022/11/10 07:59:03;;;;;;;13.98;2.65;;;;;;;-142.75;100.00;77696.41;5101504;28;20023;-71
2022/11/10 08:01:29;;;;;;;12.85;2.08;;;;;;;-142.75;100.00;77706.25;5083531;28;20023;-71
2022/11/10 08:03:54;;;;;;;13.00;2.25;;;;;;;-142.75;100.00;77678.69;5101341;28;20852;-74
2022/11/10 08:06:19;;;;;;;9.38;1.92;;;;;;;-142.75;100.00;77651.13;5101341;28;20020;-71
2022/11/10 08:08:45;;;;;;;;;;;;;;;-142.75;100.00;77623.56;5101303;28;20083;-72
2022/11/10 08:11:11;;;;;;;20.92;2.88;;;;;;;-142.75;100.00;77641.28;5100465;28;19919;-72
2022/11/10 08:13:36;;;;;;;15.00;1.80;;;;;;;-142.75;100.00;77619.63;5101433;28;20078;-69
2022/11/10 08:16:02;;;;;;;;;;;;;;;-142.75;100.00;77574.34;5101777;28;20039;-70
2022/11/10 08:18:27;;;;;;;10.32;2.40;;;;;;;-142.75;100.00;77533.00;5081073;28;20688;-70
2022/11/10 08:20:52;;;;;;;;;;;;;;;-142.75;100.00;77493.63;5097723;28;20110;-71
2022/11/10 08:23:17;;;;;;;11.18;2.10;;;;;;;-142.75;100.00;77479.84;5101070;28;19945;-71
2022/11/10 08:25:43;;;;;;;;;;;;;;;-142.75;100.00;77479.84;5101306;28;20031;-69
2022/11/10 08:28:11;;;;;;;9.50;1.95;;;;;;;-142.75;100.00;77479.84;5100443;28;19919;-71
2022/11/10 08:30:38;;;;;;;13.68;1.77;;;;;;;-142.75;100.00;77515.28;5083162;28;20035;-70
2022/11/10 08:33:05;;;;;;;12.38;1.98;;;;;;;-142.75;100.00;77523.16;5100121;28;20023;-70
2022/11/10 08:35:36;;;;;;;10.88;2.13;;;;;;;-142.75;100.00;77552.69;5100586;28;20077;-71
2022/11/10 08:38:06;;;;;;;11.82;2.22;;;;;;;-142.75;100.00;77594.03;5099720;28;20541;-70
2022/11/10 08:40:32;;;;;;;14.98;2.25;;;;;;;-142.75;100.00;77613.72;5101242;28;20080;-71
2022/11/10 08:42:59;;;;;;;12.18;1.80;;;;;;;-142.75;100.00;77615.69;5100255;28;20028;-70
2022/11/10 08:45:25;;;;;;;11.63;2.30;;;;;;;-142.75;100.00;77609.78;5101094;28;20381;-72
2022/11/10 08:48:01;;;;;;;12.98;2.03;;;;;;;-142.75;100.00;77596.00;5099730;28;20020;-71
2022/11/10 08:50:27;;;;;;;9.00;1.80;;;;;;;-142.75;100.00;77568.44;5082523;28;20024;-71
2022/11/10 08:52:53;;;;;;;16.02;2.13;;;;;;;-142.75;100.00;77546.78;5100612;28;20031;-71
2022/11/10 08:55:19;;;;;;;9.93;1.50;;;;;;;-142.75;100.00;77519.22;5100088;28;20024;-71
2022/11/10 08:57:45;;;;;;;9.88;2.03;;;;;;;-142.75;100.00;77489.69;5099674;28;20035;-69
2022/11/10 09:00:11;;;;;;;10.18;1.42;;;;;;;-142.75;100.00;77452.25;5100479;28;20027;-71
2022/11/10 09:02:37;;;;;;;6.13;1.48;;;;;;;-142.75;100.00;77424.69;5100600;28;20210;-71
2022/11/10 09:05:02;;;;;;;9.13;1.77;;;;;;;-142.75;100.00;77403.03;5099759;28;20485;-67
2022/11/10 09:07:27;;;;;;;13.85;1.88;;;;;;;-142.75;100.00;77371.53;5099578;28;20088;-68
2022/11/10 09:09:53;;;;;;;;;;;;;;;-142.75;100.00;77375.47;5100633;28;20018;-69
2022/11/10 09:12:18;;;;;;;14.77;1.65;;;;;;;-142.75;100.00;77379.41;5100119;28;20666;-68
2022/11/10 09:14:43;;;;;;;;;;;;;;;-142.75;100.00;77375.47;5100148;28;20040;-67
2022/11/10 09:17:08;;;;;;;13.07;2.08;;;;;;;-142.75;100.00;77387.28;5099213;28;19916;-68
2022/11/10 09:19:33;;;;;;;;;;;;;;;-142.75;100.00;77347.91;5100713;28;20051;-67
2022/11/10 09:21:59;;;;;;;10.82;1.63;;;;;;;-142.75;100.00;77312.47;5099756;28;20380;-67
2022/11/10 09:24:24;;;;;;;;;;;;;;;-142.75;100.00;77292.78;5099876;28;20027;-68
2022/11/10 09:26:49;;;;;;;13.82;1.60;;;;;;;-142.75;100.00;77284.91;5099042;28;19912;-67
2022/11/10 09:29:14;;;;;;;;;;;;;;;-142.75;100.00;77271.13;5100228;28;20031;-68
2022/11/10 09:31:42;;;;;;;9.95;1.95;;;;;;;-142.75;100.00;77231.75;5099830;28;19912;-68
2022/11/10 09:34:09;;;;;;;7.72;2.33;;;;;;;-142.75;100.00;77273.09;5099823;28;20050;-68
2022/11/10 09:36:34;;;;;;;11.95;2.08;;;;;;;-142.75;100.00;77290.81;5099199;28;20035;-68
2022/11/10 09:38:59;;;;;;;;;;;;;;;-142.75;100.00;77235.69;5099603;28;20030;-68
2022/11/10 09:41:28;;;;;;;12.30;2.15;;;;;;;-142.75;100.00;77217.97;5099800;28;19911;-69
2022/11/10 09:43:57;;;;;;;8.35;1.67;;;;;;;-142.75;100.00;77275.06;5099210;28;20026;-68
2022/11/10 09:46:26;;;;;;;13.82;1.90;;;;;;;-142.75;100.00;77259.31;5099756;28;20032;-68
2022/11/10 09:49:00;;;;;;;12.98;2.15;;;;;;;-142.75;100.00;77284.91;5098944;28;20119;-68
2022/11/10 09:51:34;;;;;;;12.75;2.10;;;;;;;-142.75;100.00;77275.06;5100192;28;20590;-68
2022/11/10 09:54:02;;;;;;;7.93;2.30;;;;;;;-142.75;100.00;77275.06;5099001;28;20084;-68
2022/11/10 09:56:32;;;;;;;11.30;1.73;;;;;;;-142.75;100.00;77306.56;5099517;28;20028;-70
2022/11/10 09:58:58;;;;;;;12.85;2.03;;;;;;;-142.75;100.00;77328.22;5098522;28;20072;-67
2022/11/10 10:01:26;;;;;;;;;;;;;;;-142.75;100.00;77328.22;5100033;28;20419;-68
2022/11/10 10:04:17;;;;;;;10.93;2.40;;;;;;;-142.75;100.00;77324.28;5099361;28;19919;-67
2022/11/10 10:06:54;;;;;;;9.68;1.80;;;;;;;-142.75;100.00;77302.63;5084108;28;20622;-67
2022/11/10 10:09:38;;;;;;;16.15;2.50;;;;;;;-142.75;100.00;77267.19;5081223;28;20059;-67
2022/11/10 10:12:15;;;;;;;10.60;2.40;;;;;;;-142.75;100.00;77328.22;5098988;28;20027;-67
2022/11/10 10:14:55;;;;;;;8.57;1.83;;;;;;;-142.75;100.00;77389.25;5096433;28;20642;-69
2022/11/10 10:17:52;;;;;;;14.07;3.30;;;;;;;-142.75;100.00;77389.25;5098353;28;20042;-67
2022/11/10 10:20:55;;;;;;;11.75;1.92;;;;;;;-142.75;100.00;77377.44;5025815;28;20024;-68
2022/11/10 10:23:34;;;;;;;14.10;2.25;;;;;;;-142.75;100.00;77349.88;5099547;28;20031;-68
2022/11/10 10:26:00;;;;;;;16.25;2.45;;;;;;;-142.75;100.00;77320.34;5099105;28;20523;-68
2022/11/10 10:28:26;;;;;;;;;;;;;;;-142.75;100.00;77316.41;5081200;28;20024;-68
2022/11/10 10:30:52;;;;;;;11.70;1.67;;;;;;;-142.75;100.00;77286.88;5098907;28;19923;-68
2022/11/10 10:33:20;;;;;;;13.63;2.20;;;;;;;-142.75;100.00;77318.38;5080804;28;20713;-68
2022/11/10 10:35:48;;;;;;;8.75;1.67;;;;;;;-142.75;100.00;77328.22;5101430;28;20106;-67
2022/11/10 10:38:30;;;;;;;10.02;2.28;;;;;;;-142.75;100.00;77351.84;5102262;28;20499;-67
2022/11/10 10:41:01;;;;;;;13.63;2.53;;;;;;;-142.75;100.00;77387.28;5103070;28;20118;-67
2022/11/10 10:43:26;;;;;;;7.90;2.20;;;;;;;-142.75;100.00;77395.16;5085162;28;20019;-68
2022/11/10 10:46:06;;;;;;;;;;;;;;;-142.75;100.00;77403.03;5103322;28;20817;-68
2022/11/10 10:48:32;;;;;;;10.82;2.15;;;;;;;-142.75;100.00;77399.09;5102340;28;19931;-68
2022/11/10 10:50:57;;;;;;;;;;;;;;;-142.75;100.00;77389.25;5103303;28;20710;-68
2022/11/10 10:53:23;;;;;;;6.95;1.90;;;;;;;-142.75;100.00;77371.53;5103373;28;19914;-68
2022/11/10 10:55:59;;;;;;;11.23;2.25;;;;;;;-142.75;100.00;77373.50;5102482;28;20024;-68
2022/11/10 10:58:31;;;;;;;11.73;2.33;;;;;;;-142.75;100.00;77446.34;5102530;28;20028;-70
2022/11/10 11:01:19;;;;;;;10.60;2.33;;;;;;;-142.75;100.00;77444.38;5102528;28;20020;-68
2022/11/10 11:03:49;;;;;;;11.63;1.77;;;;;;;-142.75;100.00;77434.53;5102548;28;20063;-68
2022/11/10 11:06:17;;;;;;;9.80;2.22;;;;;;;-142.75;100.00;77436.50;5102466;28;20024;-68
2022/11/10 11:08:53;;;;;;;7.28;2.17;;;;;;;-142.75;100.00;77440.44;5101703;28;20121;-66
2022/11/10 11:11:23;;;;;;;10.32;2.05;;;;;;;-142.75;100.00;77432.56;5102372;28;20804;-68
2022/11/10 11:13:48;;;;;;;11.18;2.50;;;;;;;-142.75;100.00;77452.25;5102066;28;20138;-68
2022/11/10 11:16:14;;;;;;;5.28;1.92;;;;;;;-142.75;100.00;77450.28;5102378;28;20039;-68
2022/11/10 11:18:39;;;;;;;;;;;;;;;-142.75;100.00;77462.13;5102476;28;20028;-68
2022/11/10 11:21:23;;;;;;;8.60;1.60;;;;;;;-142.75;100.00;77464.09;5102066;28;19933;-68
2022/11/10 11:24:03;;;;;;;10.43;1.90;;;;;;;-142.75;100.00;77454.25;5101859;28;20548;-68